Time;durP1;ratioP1;P1;durP2;ratioP2;P2;SDS_P1;SDS_P2;PMS_P1;PMS_P2;Temp;Humidity;BMP_temperature;BMP_pressure;BME280_temperature;BME280_humidity;BME280_pressure;Samples;Min_cycle;Max_cycle;Signal;HPM_P1;HPM_P2
2021/01/10 00:00:08;;;;;;;8.93;2.30;;;18.70;42.60;;;;;;5082887;28;20067;-55
2021/01/10 00:02:35;;;;;;;3.38;2.92;;;18.70;42.80;;;;;;5085890;28;20041;-54
2021/01/10 00:05:02;;;;;;;7.88;2.08;;;18.70;42.90;;;;;;5085824;28;20083;-56
2021/01/10 00:07:29;;;;;;;6.45;3.05;;;18.70;43.00;;;;;;5081925;28;20109;-51
2021/01/10 00:09:56;;;;;;;6.78;3.60;;;18.70;43.10;;;;;;5077204;28;20045;-54
2021/01/10 00:12:23;;;;;;;3.03;1.77;;;18.70;43.10;;;;;;5081977;28;20078;-53
2021/01/10 00:14:51;;;;;;;5.45;2.78;;;18.70;43.20;;;;;;5077151;28;20052;-53
2021/01/10 00:17:19;;;;;;;4.57;3.10;;;18.70;43.20;;;;;;5074353;28;20040;-49
2021/01/10 00:19:46;;;;;;;9.25;2.80;;;18.70;43.30;;;;;;5077814;28;20078;-54
2021/01/10 00:22:13;;;;;;;2.45;1.45;;;18.70;43.30;;;;;;5077134;28;20090;-53
2021/01/10 00:24:42;;;;;;;6.93;2.58;;;18.70;43.30;;;;;;5076959;28;20063;-53
2021/01/10 00:27:09;;;;;;;4.55;2.25;;;18.70;43.40;;;;;;5080378;28;20435;-51
2021/01/10 00:29:37;;;;;;;3.60;2.00;;;18.70;43.50;;;;;;5086753;28;20039;-49
2021/01/10 00:32:04;;;;;;;2.45;2.25;;;18.70;43.50;;;;;;5078462;28;20090;-52
2021/01/10 00:34:31;;;;;;;4.30;2.63;;;18.70;43.50;;;;;;5075821;28;20059;-52
2021/01/10 00:36:58;;;;;;;5.15;2.03;;;18.70;43.70;;;;;;5080824;28;20048;-55
2021/01/10 00:39:25;;;;;;;2.67;2.05;;;18.70;44.30;;;;;;5082754;28;20040;-54
2021/01/10 00:41:52;;;;;;;4.20;2.13;;;18.70;43.80;;;;;;5086366;28;20051;-52
2021/01/10 00:44:19;;;;;;;5.60;2.70;;;18.70;43.80;;;;;;5073417;28;20135;-55
2021/01/10 00:46:45;;;;;;;3.40;2.63;;;18.70;43.90;;;;;;5089417;28;20075;-57
2021/01/10 00:49:12;;;;;;;4.25;2.60;;;18.70;43.90;;;;;;5089589;28;20048;-54
2021/01/10 00:51:39;;;;;;;5.15;3.03;;;18.60;43.90;;;;;;5087425;28;20357;-53
2021/01/10 00:54:05;;;;;;;5.35;3.00;;;18.70;44.00;;;;;;5082874;28;20069;-54
2021/01/10 00:56:32;;;;;;;1.65;1.35;;;18.70;44.00;;;;;;5076276;28;20063;-53
2021/01/10 00:59:02;;;;;;;2.42;2.13;;;18.70;44.10;;;;;;5085662;28;20083;-50
2021/01/10 01:01:29;;;;;;;4.78;2.70;;;18.70;44.20;;;;;;5075938;28;20051;-50
2021/01/10 01:03:56;;;;;;;3.38;1.77;;;18.60;44.20;;;;;;5086225;28;20042;-51
2021/01/10 01:06:23;;;;;;;3.50;2.53;;;18.60;44.30;;;;;;5086917;28;20124;-54
2021/01/10 01:08:50;;;;;;;2.70;2.50;;;18.60;44.40;;;;;;5073350;28;20044;-53
2021/01/10 01:11:16;;;;;;;4.55;2.58;;;18.60;44.50;;;;;;5072572;28;20504;-52
2021/01/10 01:13:43;;;;;;;1.67;1.45;;;18.70;44.50;;;;;;5076463;28;20139;-52
2021/01/10 01:16:10;;;;;;;3.72;2.83;;;18.70;44.70;;;;;;5088417;28;20074;-51
2021/01/10 01:18:37;;;;;;;5.35;2.92;;;18.70;44.60;;;;;;5086735;28;20060;-53
2021/01/10 01:21:03;;;;;;;2.88;2.50;;;18.70;44.60;;;;;;5084374;28;20048;-54
2021/01/10 01:23:30;;;;;;;1.83;1.73;;;18.70;44.60;;;;;;5075824;28;20048;-55
2021/01/10 01:25:56;;;;;;;3.13;2.15;;;18.60;44.60;;;;;;5086705;28;20044;-54
2021/01/10 01:28:23;;;;;;;4.80;3.80;;;18.70;44.60;;;;;;5082365;28;20059;-53
2021/01/10 01:30:50;;;;;;;3.47;1.55;;;18.60;44.50;;;;;;5078246;28;20044;-53
2021/01/10 01:33:17;;;;;;;3.83;3.35;;;18.60;44.70;;;;;;5078974;28;20415;-51
2021/01/10 01:35:44;;;;;;;2.70;1.98;;;18.60;44.60;;;;;;5083471;28;20052;-56
2021/01/10 01:38:10;;;;;;;9.07;2.55;;;18.70;44.70;;;;;;5080845;28;20067;-54
2021/01/10 01:40:37;;;;;;;3.45;2.63;;;18.60;44.80;;;;;;5080483;28;20048;-54
2021/01/10 01:43:07;;;;;;;3.10;2.83;;;18.60;44.70;;;;;;5080920;28;20044;-58
2021/01/10 01:45:34;;;;;;;2.38;1.90;;;18.60;44.70;;;;;;5081553;28;20510;-54
2021/01/10 01:48:04;;;;;;;4.68;2.85;;;18.60;44.70;;;;;;5080724;28;20458;-57
2021/01/10 01:50:31;;;;;;;4.70;2.05;;;18.60;44.70;;;;;;5079239;28;20044;-53
2021/01/10 01:52:58;;;;;;;5.07;1.85;;;18.60;44.70;;;;;;5080129;28;20078;-57
2021/01/10 01:55:24;;;;;;;3.63;2.08;;;18.60;44.70;;;;;;5081562;28;20055;-57
2021/01/10 01:57:51;;;;;;;3.78;2.13;;;18.60;44.70;;;;;;5080334;28;20043;-54
2021/01/10 02:00:19;;;;;;;3.28;2.72;;;18.60;44.70;;;;;;5072850;28;20048;-57
2021/01/10 02:02:45;;;;;;;3.00;2.30;;;18.60;44.70;;;;;;5075558;28;20558;-53
2021/01/10 02:05:16;;;;;;;3.28;2.50;;;18.60;44.70;;;;;;5072430;28;20504;-51
2021/01/10 02:07:52;;;;;;;3.88;2.47;;;18.60;44.70;;;;;;5073880;28;20049;-53
2021/01/10 02:10:25;;;;;;;2.80;2.10;;;18.70;44.80;;;;;;5073452;28;20052;-51
2021/01/10 02:12:53;;;;;;;2.85;2.25;;;18.60;44.70;;;;;;5077668;28;20044;-54
2021/01/10 02:15:22;;;;;;;3.50;2.83;;;18.70;44.80;;;;;;5079571;28;20068;-54
2021/01/10 02:17:52;;;;;;;4.38;2.40;;;18.60;44.80;;;;;;5074623;28;20043;-51
2021/01/10 02:20:28;;;;;;;5.75;3.05;;;18.60;44.80;;;;;;5086170;28;20055;-51
2021/01/10 02:23:04;;;;;;;8.77;2.72;;;18.60;45.00;;;;;;5072868;28;20123;-55
2021/01/10 02:25:33;;;;;;;6.47;2.28;;;18.60;45.00;;;;;;5083240;28;20052;-53
2021/01/10 02:28:01;;;;;;;4.53;2.45;;;18.60;45.00;;;;;;5074536;28;20102;-52
2021/01/10 02:30:29;;;;;;;5.05;2.50;;;18.60;45.00;;;;;;5075131;28;20500;-52
2021/01/10 02:33:02;;;;;;;6.10;2.70;;;18.60;45.00;;;;;;5077136;28;20108;-53
2021/01/10 02:35:30;;;;;;;3.63;2.20;;;18.60;45.00;;;;;;5074223;28;20119;-52
2021/01/10 02:38:33;;;;;;;3.22;2.53;;;18.60;45.00;;;;;;5069623;28;20523;-53
2021/01/10 02:41:12;;;;;;;4.22;2.92;;;18.60;45.00;;;;;;5069413;28;20476;-52
2021/01/10 02:43:43;;;;;;;3.35;2.05;;;18.60;45.10;;;;;;5073155;28;20075;-52
2021/01/10 02:46:11;;;;;;;3.88;2.88;;;18.60;45.10;;;;;;5075670;28;20106;-54
2021/01/10 02:48:38;;;;;;;3.53;2.42;;;18.60;45.10;;;;;;5076307;28;20072;-55
2021/01/10 02:51:05;;;;;;;4.88;3.22;;;18.60;45.00;;;;;;5076825;28;20044;-51
2021/01/10 02:53:32;;;;;;;3.88;2.00;;;18.60;45.10;;;;;;5077575;28;20127;-53
2021/01/10 02:55:58;;;;;;;2.45;2.17;;;18.60;45.10;;;;;;5074798;28;20064;-51
2021/01/10 02:58:27;;;;;;;3.75;2.08;;;18.60;45.00;;;;;;5079632;28;20083;-54
2021/01/10 03:00:58;;;;;;;5.30;3.40;;;18.60;45.00;;;;;;5083180;28;20504;-51
2021/01/10 03:03:28;;;;;;;3.35;2.35;;;18.60;45.00;;;;;;5078769;28;20052;-55
2021/01/10 03:05:55;;;;;;;5.05;2.45;;;18.60;45.00;;;;;;5080060;28;20526;-53
2021/01/10 03:08:23;;;;;;;3.50;2.30;;;18.60;45.00;;;;;;5075954;28;20036;-55
2021/01/10 03:10:50;;;;;;;2.00;1.25;;;18.60;45.00;;;;;;5079216;28;20051;-52
2021/01/10 03:13:17;;;;;;;4.15;2.45;;;18.60;45.00;;;;;;5079179;28;20105;-51
2021/01/10 03:15:45;;;;;;;3.67;1.92;;;18.60;45.00;;;;;;5080758;28;20062;-54
2021/01/10 03:18:17;;;;;;;4.57;2.17;;;18.60;45.00;;;;;;5082236;28;20063;-52
2021/01/10 03:20:44;;;;;;;3.70;2.22;;;18.60;45.10;;;;;;5079281;28;20052;-54
2021/01/10 03:23:11;;;;;;;4.65;2.72;;;18.60;45.00;;;;;;5073935;28;20071;-57
2021/01/10 03:25:38;;;;;;;3.65;2.42;;;18.60;45.10;;;;;;5075125;28;20060;-58
2021/01/10 03:28:05;;;;;;;3.35;2.45;;;18.50;45.00;;;;;;5083182;28;20064;-51
2021/01/10 03:30:32;;;;;;;6.45;2.50;;;18.50;45.10;;;;;;5079779;28;20036;-55
2021/01/10 03:33:00;;;;;;;4.47;2.58;;;18.60;45.20;;;;;;5080061;28;20055;-55
2021/01/10 03:35:27;;;;;;;4.95;2.75;;;18.60;45.10;;;;;;5074298;28;20036;-54
2021/01/10 03:37:53;;;;;;;5.43;2.90;;;18.60;45.10;;;;;;5080552;28;20596;-55
2021/01/10 03:40:20;;;;;;;3.03;2.03;;;18.60;45.10;;;;;;5079601;28;20051;-51
2021/01/10 03:42:47;;;;;;;4.07;2.50;;;18.60;45.10;;;;;;5082375;28;20048;-54
2021/01/10 03:45:16;;;;;;;6.00;2.67;;;18.60;45.10;;;;;;5078932;28;20147;-54
2021/01/10 03:47:42;;;;;;;3.50;2.67;;;18.60;45.10;;;;;;5078926;28;20119;-53
2021/01/10 03:50:11;;;;;;;3.28;2.97;;;18.50;45.00;;;;;;5087310;28;20048;-53
2021/01/10 03:52:37;;;;;;;7.30;3.25;;;18.60;45.10;;;;;;5073889;28;20052;-50
2021/01/10 03:55:04;;;;;;;2.30;2.10;;;18.60;45.10;;;;;;5082291;28;20587;-53
2021/01/10 03:57:31;;;;;;;3.65;2.72;;;18.50;45.10;;;;;;5078555;28;20467;-51
2021/01/10 03:59:58;;;;;;;4.43;2.42;;;18.50;45.20;;;;;;5088508;28;20128;-53
2021/01/10 04:02:24;;;;;;;3.88;3.03;;;18.50;45.10;;;;;;5075339;28;20106;-55
2021/01/10 04:04:51;;;;;;;7.57;2.20;;;18.50;45.00;;;;;;5084118;28;20113;-53
2021/01/10 04:07:18;;;;;;;2.63;2.28;;;18.50;45.00;;;;;;5080812;28;20067;-56
2021/01/10 04:09:46;;;;;;;3.83;2.05;;;18.50;45.10;;;;;;5082067;28;20060;-50
2021/01/10 04:12:12;;;;;;;3.47;3.10;;;18.50;45.00;;;;;;5078248;28;20043;-53
2021/01/10 04:14:39;;;;;;;4.57;2.72;;;18.50;45.00;;;;;;5077307;28;20527;-52
2021/01/10 04:17:05;;;;;;;4.38;2.97;;;18.50;44.90;;;;;;5072620;28;20047;-49
2021/01/10 04:19:32;;;;;;;3.33;2.20;;;18.50;44.90;;;;;;5078518;28;20048;-54
2021/01/10 04:21:58;;;;;;;6.28;3.28;;;18.50;44.90;;;;;;5078473;28;20072;-55
2021/01/10 04:24:26;;;;;;;3.70;2.05;;;18.50;44.90;;;;;;5075597;28;20578;-50
2021/01/10 04:26:52;;;;;;;6.35;2.65;;;18.50;44.90;;;;;;5078437;28;20096;-51
2021/01/10 04:29:20;;;;;;;5.22;3.20;;;18.50;44.90;;;;;;5073640;28;20064;-54
2021/01/10 04:31:47;;;;;;;5.15;2.97;;;18.50;44.90;;;;;;5075215;28;20055;-48
2021/01/10 04:34:14;;;;;;;4.93;2.95;;;18.50;45.00;;;;;;5075175;28;20044;-52
2021/01/10 04:36:41;;;;;;;4.40;2.83;;;18.50;44.90;;;;;;5078547;28;20127;-51
2021/01/10 04:39:08;;;;;;;4.53;2.65;;;18.50;44.90;;;;;;5077222;28;20581;-50
2021/01/10 04:41:35;;;;;;;8.13;3.10;;;18.50;45.00;;;;;;5074838;28;20047;-54
2021/01/10 04:44:02;;;;;;;6.05;3.00;;;18.50;45.00;;;;;;5072111;28;20048;-53
2021/01/10 04:46:30;;;;;;;5.00;2.47;;;18.50;44.90;;;;;;5080548;28;20129;-51
2021/01/10 04:48:57;;;;;;;4.53;2.33;;;18.50;45.00;;;;;;5081907;28;20060;-53
2021/01/10 04:51:26;;;;;;;6.45;2.05;;;18.50;44.90;;;;;;5074006;28;20577;-51
2021/01/10 04:53:56;;;;;;;4.05;2.55;;;18.50;45.00;;;;;;5078150;28;20044;-51
2021/01/10 04:56:28;;;;;;;3.67;1.85;;;18.50;44.90;;;;;;5072835;28;20480;-55
2021/01/10 04:58:57;;;;;;;3.72;1.85;;;18.50;45.00;;;;;;5074687;28;20055;-57
2021/01/10 05:01:24;;;;;;;2.70;1.67;;;18.50;44.90;;;;;;5091180;28;20416;-52
2021/01/10 05:03:54;;;;;;;5.97;2.13;;;18.50;44.90;;;;;;5078593;28;20455;-50
2021/01/10 05:06:21;;;;;;;3.90;1.98;;;18.50;44.90;;;;;;5077548;28;20110;-53
2021/01/10 05:08:48;;;;;;;3.88;2.20;;;18.50;44.90;;;;;;5074510;28;20047;-53
2021/01/10 05:11:16;;;;;;;2.85;1.90;;;18.50;44.90;;;;;;5072715;28;20071;-51
2021/01/10 05:13:43;;;;;;;3.38;2.28;;;18.50;44.90;;;;;;5075775;28;20591;-53
2021/01/10 05:16:18;;;;;;;2.58;1.60;;;18.50;44.80;;;;;;5078312;28;20055;-53
2021/01/10 05:18:54;;;;;;;2.08;1.55;;;18.50;44.90;;;;;;5081976;28;20745;-53
2021/01/10 05:21:23;;;;;;;2.65;1.50;;;18.50;44.90;;;;;;5078467;28;20101;-53
2021/01/10 05:23:50;;;;;;;3.17;1.98;;;18.50;44.80;;;;;;5073813;28;20186;-52
2021/01/10 05:26:18;;;;;;;2.35;1.73;;;18.50;44.80;;;;;;5074263;28;20117;-52
2021/01/10 05:28:45;;;;;;;2.35;1.42;;;18.50;44.90;;;;;;5072749;28;20102;-56
2021/01/10 05:31:30;;;;;;;3.70;2.35;;;18.50;44.80;;;;;;5086228;28;20048;-51
2021/01/10 05:33:57;;;;;;;1.75;1.42;;;18.50;44.80;;;;;;5081010;28;20435;-50
2021/01/10 05:36:26;;;;;;;4.15;1.70;;;18.50;44.80;;;;;;5075677;28;20089;-54
2021/01/10 05:38:52;;;;;;;1.33;1.05;;;18.50;44.80;;;;;;5075330;28;20044;-51
2021/01/10 05:41:21;;;;;;;5.80;2.03;;;18.50;44.80;;;;;;5081667;28;20167;-54
2021/01/10 05:43:58;;;;;;;2.38;1.42;;;18.50;44.80;;;;;;5079497;28;20093;-52
2021/01/10 05:46:27;;;;;;;2.55;1.60;;;18.50;44.80;;;;;;5079014;28;20064;-55
2021/01/10 05:48:54;;;;;;;4.00;1.45;;;18.50;44.80;;;;;;5083199;28;20473;-55
2021/01/10 05:51:21;;;;;;;2.30;1.73;;;18.40;44.70;;;;;;5078220;28;20048;-54
2021/01/10 05:53:48;;;;;;;3.60;2.53;;;18.50;44.70;;;;;;5079102;28;20044;-52
2021/01/10 05:56:18;;;;;;;5.47;2.10;;;18.50;44.70;;;;;;5084136;28;20096;-54
2021/01/10 05:58:46;;;;;;;2.13;1.77;;;18.50;44.80;;;;;;5079608;28;20068;-53
2021/01/10 06:01:13;;;;;;;1.38;1.25;;;18.40;44.70;;;;;;5079461;28;20036;-53
2021/01/10 06:03:41;;;;;;;3.70;1.58;;;18.50;45.30;;;;;;5078980;28;20798;-54
2021/01/10 06:06:09;;;;;;;3.58;2.13;;;18.50;44.70;;;;;;5080175;28;20592;-51
2021/01/10 06:08:37;;;;;;;2.47;1.92;;;18.50;44.80;;;;;;5079073;28;20048;-49
2021/01/10 06:11:24;;;;;;;1.75;1.63;;;18.50;44.80;;;;;;5079609;28;20051;-51
2021/01/10 06:14:02;;;;;;;2.72;1.13;;;18.50;44.80;;;;;;5081873;28;20442;-50
2021/01/10 06:16:30;;;;;;;1.42;1.33;;;18.40;44.80;;;;;;5078092;28;20056;-48
2021/01/10 06:18:59;;;;;;;2.67;1.95;;;18.40;44.80;;;;;;5080713;28;20064;-50
2021/01/10 06:21:28;;;;;;;1.33;1.02;;;18.40;44.90;;;;;;5079392;28;20416;-52
2021/01/10 06:23:57;;;;;;;2.67;1.15;;;18.40;45.00;;;;;;5074394;28;20044;-58
2021/01/10 06:26:25;;;;;;;3.08;0.85;;;18.40;45.10;;;;;;5085200;28;20083;-53
2021/01/10 06:28:55;;;;;;;4.28;1.00;;;18.40;45.10;;;;;;5085505;28;20059;-59
2021/01/10 06:31:24;;;;;;;3.10;1.17;;;18.40;45.30;;;;;;5087694;28;20551;-59
2021/01/10 06:34:04;;;;;;;3.63;1.45;;;18.40;45.30;;;;;;5086758;28;20509;-58
2021/01/10 06:36:33;;;;;;;1.77;1.58;;;18.40;45.50;;;;;;5088365;28;20048;-58
2021/01/10 06:39:06;;;;;;;2.35;0.88;;;18.40;45.40;;;;;;5085042;28;20575;-55
2021/01/10 06:42:08;;;;;;;1.90;1.17;;;18.40;45.40;;;;;;5085588;28;20618;-59
2021/01/10 06:44:37;;;;;;;1.23;1.13;;;18.50;45.40;;;;;;5089905;28;20058;-56
2021/01/10 06:47:05;;;;;;;3.60;1.40;;;18.40;45.30;;;;;;5087236;28;20089;-59
2021/01/10 06:49:33;;;;;;;2.20;0.95;;;18.40;45.30;;;;;;5088476;28;20055;-59
2021/01/10 06:52:03;;;;;;;1.73;1.63;;;18.40;45.20;;;;;;5086891;28;20093;-59
2021/01/10 06:54:30;;;;;;;2.17;1.13;;;18.40;45.30;;;;;;5086091;28;20040;-58
2021/01/10 06:56:56;;;;;;;13.35;1.75;;;18.40;45.30;;;;;;5087022;28;20036;-59
2021/01/10 06:59:24;;;;;;;3.67;1.42;;;18.40;45.40;;;;;;5076011;28;20052;-59
2021/01/10 07:02:01;;;;;;;3.40;1.42;;;18.40;45.40;;;;;;5090193;28;20036;-55
2021/01/10 07:05:00;;;;;;;6.00;1.05;;;18.40;45.70;;;;;;5077696;28;20064;-57
2021/01/10 07:07:35;;;;;;;3.65;1.00;;;18.50;45.60;;;;;;5077217;28;20113;-56
2021/01/10 07:10:06;;;;;;;8.50;1.07;;;18.40;45.70;;;;;;5081250;28;20044;-57
2021/01/10 07:12:33;;;;;;;4.30;1.65;;;18.40;45.60;;;;;;5083752;28;20064;-54
2021/01/10 07:15:28;;;;;;;3.85;1.27;;;18.40;45.50;;;;;;5076577;28;20531;-58
2021/01/10 07:18:08;;;;;;;2.58;1.40;;;18.40;45.50;;;;;;5082165;28;20044;-57
2021/01/10 07:20:44;;;;;;;4.50;1.08;;;18.40;45.40;;;;;;5077336;28;20101;-52
2021/01/10 07:23:28;;;;;;;5.20;1.27;;;18.40;45.40;;;;;;5072950;28;20036;-56
2021/01/10 07:25:55;;;;;;;5.68;1.45;;;18.40;45.30;;;;;;5074216;28;20112;-55
2021/01/10 07:28:33;;;;;;;4.75;1.20;;;18.40;46.00;;;;;;5075412;28;20059;-56
2021/01/10 07:31:24;;;;;;;11.98;0.82;;;18.40;45.30;;;;;;5080692;28;20052;-56
2021/01/10 07:34:15;;;;;;;1.55;0.57;;;18.40;45.30;;;;;;5076672;28;20087;-59
2021/01/10 07:36:52;;;;;;;2.20;0.90;;;18.40;45.10;;;;;;5070108;28;20045;-56
2021/01/10 07:39:21;;;;;;;3.30;1.15;;;18.40;45.10;;;;;;5086642;28;20120;-55
2021/01/10 07:41:48;;;;;;;1.75;0.70;;;18.40;45.10;;;;;;5076761;28;20130;-54
2021/01/10 07:44:17;;;;;;;5.43;0.85;;;18.30;44.90;;;;;;5082108;28;20789;-56
2021/01/10 07:47:02;;;;;;;4.32;0.73;;;18.40;44.90;;;;;;5077799;28;20052;-55
2021/01/10 07:49:51;;;;;;;0.73;0.63;;;18.40;44.90;;;;;;5081352;28;20389;-54
2021/01/10 07:52:55;;;;;;;2.40;1.00;;;18.40;45.50;;;;;;5076467;28;20069;-56
2021/01/10 07:55:23;;;;;;;0.80;0.65;;;18.40;44.90;;;;;;5075021;28;20078;-55
2021/01/10 07:57:50;;;;;;;3.42;1.67;;;18.30;44.70;;;;;;5080356;28;20105;-52
2021/01/10 08:00:22;;;;;;;2.92;0.90;;;18.30;44.70;;;;;;5077258;28;20044;-57
2021/01/10 08:03:00;;;;;;;3.25;1.52;;;18.40;44.80;;;;;;5074601;28;20040;-57
2021/01/10 08:05:30;;;;;;;3.10;0.85;;;18.40;44.80;;;;;;5074456;28;20095;-56
2021/01/10 08:07:59;;;;;;;1.25;0.50;;;18.40;44.70;;;;;;5076361;28;20048;-57
2021/01/10 08:10:28;;;;;;;5.20;1.20;;;18.40;44.70;;;;;;5076054;28;20072;-55
2021/01/10 08:12:55;;;;;;;4.35;0.52;;;18.40;44.60;;;;;;5079736;28;20165;-58
2021/01/10 08:15:22;;;;;;;2.58;0.80;;;18.40;44.60;;;;;;5079617;28;20039;-58
2021/01/10 08:17:48;;;;;;;2.55;0.68;;;18.40;44.60;;;;;;5079852;28;20051;-56
2021/01/10 08:20:15;;;;;;;0.57;0.40;;;18.30;44.60;;;;;;5073152;28;20058;-58
2021/01/10 08:22:41;;;;;;;4.13;0.70;;;18.30;44.60;;;;;;5073313;28;20098;-58
2021/01/10 08:25:20;;;;;;;1.48;1.02;;;18.40;44.60;;;;;;5084768;28;20135;-58
2021/01/10 08:27:49;;;;;;;2.97;0.90;;;18.40;44.60;;;;;;5077595;28;20051;-56
2021/01/10 08:30:16;;;;;;;1.85;0.55;;;18.40;44.50;;;;;;5079572;28;20111;-56
2021/01/10 08:32:43;;;;;;;2.72;0.57;;;18.40;44.50;;;;;;5074269;28;20059;-55
2021/01/10 08:35:11;;;;;;;2.28;0.88;;;18.40;44.40;;;;;;5080839;28;20492;-52
2021/01/10 08:37:38;;;;;;;2.67;0.68;;;18.40;44.40;;;;;;5071534;28;20479;-54
2021/01/10 08:40:08;;;;;;;1.25;0.70;;;18.40;44.40;;;;;;5079910;28;20071;-57
2021/01/10 08:42:36;;;;;;;4.13;0.98;;;18.40;44.30;;;;;;5082914;28;20040;-58
2021/01/10 08:45:18;;;;;;;1.92;0.75;;;18.40;44.30;;;;;;5075020;28;20125;-55
2021/01/10 08:47:46;;;;;;;2.88;0.93;;;18.40;44.30;;;;;;5076256;28;20047;-56
2021/01/10 08:50:15;;;;;;;5.57;0.95;;;18.40;44.20;;;;;;5072316;28;20086;-58
2021/01/10 08:52:52;;;;;;;2.17;0.80;;;18.40;44.20;;;;;;5075054;28;20044;-58
2021/01/10 08:55:30;;;;;;;4.18;0.63;;;18.40;44.10;;;;;;5082780;28;20580;-55
2021/01/10 08:57:58;;;;;;;4.20;0.98;;;18.40;44.10;;;;;;5080310;28;20048;-54
2021/01/10 09:00:25;;;;;;;3.25;0.90;;;18.40;44.00;;;;;;5081368;28;20044;-58
2021/01/10 09:02:52;;;;;;;3.70;0.63;;;18.30;44.00;;;;;;5074948;28;20048;-56
2021/01/10 09:05:23;;;;;;;2.38;1.25;;;18.40;44.00;;;;;;5071700;28;20588;-55
2021/01/10 09:07:55;;;;;;;1.27;0.70;;;18.40;44.00;;;;;;5073735;28;20455;-58
2021/01/10 09:10:23;;;;;;;1.73;0.63;;;18.30;44.00;;;;;;5078507;28;20510;-56
2021/01/10 09:12:55;;;;;;;2.65;0.98;;;18.30;44.00;;;;;;5074572;28;20057;-56
2021/01/10 09:15:27;;;;;;;3.85;1.63;;;18.30;44.00;;;;;;5078970;28;20036;-55
2021/01/10 09:17:57;;;;;;;1.95;0.75;;;18.40;44.00;;;;;;5081906;28;20062;-55
2021/01/10 09:20:28;;;;;;;3.03;1.85;;;18.30;43.90;;;;;;5100436;28;20047;-56
2021/01/10 09:22:56;;;;;;;2.88;1.20;;;18.40;43.90;;;;;;5098982;28;20089;-57
2021/01/10 09:25:24;;;;;;;1.35;0.70;;;18.40;43.90;;;;;;5096451;28;20048;-57
2021/01/10 09:28:07;;;;;;;1.27;1.00;;;18.30;43.80;;;;;;5100797;28;20067;-57
2021/01/10 09:30:36;;;;;;;2.28;1.25;;;18.40;43.80;;;;;;5099637;28;20055;-52
2021/01/10 09:33:05;;;;;;;3.00;1.23;;;18.40;43.70;;;;;;5095858;28;20066;-56
2021/01/10 09:35:45;;;;;;;3.10;1.38;;;18.40;43.80;;;;;;5096921;28;20048;-55
2021/01/10 09:38:14;;;;;;;1.88;1.33;;;18.40;43.70;;;;;;5098485;28;20094;-55
2021/01/10 09:40:59;;;;;;;1.13;0.65;;;18.30;43.60;;;;;;5100127;28;20067;-56
2021/01/10 09:43:37;;;;;;;3.63;1.23;;;18.40;43.70;;;;;;5099868;28;20400;-55
2021/01/10 09:46:21;;;;;;;2.38;0.90;;;18.40;43.70;;;;;;5057301;28;20053;-53
2021/01/10 09:48:50;;;;;;;1.48;0.90;;;18.30;43.60;;;;;;5038742;28;20046;-54
2021/01/10 09:51:17;;;;;;;2.78;1.65;;;18.30;43.50;;;;;;5034147;28;20057;-54
2021/01/10 09:53:47;;;;;;;1.75;0.93;;;18.30;43.40;;;;;;5032563;28;20049;-56
2021/01/10 09:56:15;;;;;;;2.30;1.48;;;18.30;43.40;;;;;;5038455;28;20124;-57
2021/01/10 09:58:42;;;;;;;2.40;1.40;;;18.30;43.40;;;;;;5032887;28;20061;-55
2021/01/10 10:01:10;;;;;;;1.13;1.00;;;18.30;43.40;;;;;;5034827;28;20159;-53
2021/01/10 10:03:37;;;;;;;2.25;1.42;;;18.30;43.40;;;;;;5038085;28;20061;-56
2021/01/10 10:06:04;;;;;;;1.33;1.15;;;18.30;43.40;;;;;;5034848;28;20071;-56
2021/01/10 10:08:30;;;;;;;2.88;1.33;;;18.30;43.40;;;;;;5032846;28;20044;-57
2021/01/10 10:10:58;;;;;;;0.98;0.93;;;18.30;43.50;;;;;;5034557;28;20130;-51
2021/01/10 10:13:27;;;;;;;3.67;0.95;;;18.30;43.50;;;;;;5038028;28;20053;-56
2021/01/10 10:15:54;;;;;;;1.58;1.17;;;18.30;43.50;;;;;;5033852;28;20549;-55
2021/01/10 10:18:25;;;;;;;3.65;1.80;;;18.30;43.50;;;;;;5033479;28;20048;-53
2021/01/10 10:20:51;;;;;;;2.53;0.93;;;18.30;43.50;;;;;;5033562;28;20508;-55
2021/01/10 10:23:18;;;;;;;3.05;1.65;;;18.30;43.50;;;;;;5036574;28;20131;-53
2021/01/10 10:25:47;;;;;;;2.88;2.25;;;18.30;43.50;;;;;;5040468;28;20049;-54
2021/01/10 10:28:14;;;;;;;4.13;1.42;;;18.30;43.50;;;;;;5038678;28;20454;-55
2021/01/10 10:30:42;;;;;;;2.20;1.15;;;18.30;43.40;;;;;;5038117;28;20374;-62
2021/01/10 10:33:09;;;;;;;3.25;2.22;;;18.30;43.40;;;;;;5033827;28;20052;-55
2021/01/10 10:35:37;;;;;;;1.48;1.25;;;18.30;43.30;;;;;;5033876;28;20053;-54
2021/01/10 10:38:04;;;;;;;5.43;1.33;;;18.30;43.20;;;;;;5031701;28;20052;-55
2021/01/10 10:40:31;;;;;;;2.63;1.77;;;18.30;43.20;;;;;;5038033;28;20061;-56
2021/01/10 10:42:58;;;;;;;4.95;1.58;;;18.30;43.20;;;;;;5043526;28;20494;-55
2021/01/10 10:45:25;;;;;;;2.42;1.95;;;18.30;43.20;;;;;;5072896;28;20379;-53
2021/01/10 10:47:52;;;;;;;4.88;2.22;;;18.30;43.10;;;;;;5072512;28;20132;-55
2021/01/10 10:50:19;;;;;;;3.08;1.42;;;18.30;43.20;;;;;;5074339;28;20555;-53
2021/01/10 10:52:46;;;;;;;3.95;2.63;;;18.30;43.30;;;;;;5071268;28;20077;-55
2021/01/10 10:55:13;;;;;;;0.88;0.82;;;18.30;43.50;;;;;;5083466;28;20064;-56
2021/01/10 10:57:42;;;;;;;1.88;1.70;;;18.30;43.70;;;;;;5081306;28;20631;-55
2021/01/10 11:00:09;;;;;;;2.25;1.58;;;18.40;43.80;;;;;;5073636;28;20075;-56
2021/01/10 11:02:36;;;;;;;2.90;1.23;;;18.40;44.00;;;;;;5073288;28;20126;-56
2021/01/10 11:05:03;;;;;;;1.95;1.45;;;18.30;44.00;;;;;;5073166;28;20041;-55
2021/01/10 11:07:31;;;;;;;3.78;2.22;;;18.30;44.00;;;;;;5077088;28;20173;-56
2021/01/10 11:09:58;;;;;;;1.75;1.65;;;18.40;44.10;;;;;;5073578;28;20048;-54
2021/01/10 11:12:25;;;;;;;2.15;1.02;;;18.40;44.20;;;;;;5078007;28;20044;-52
2021/01/10 11:14:52;;;;;;;1.73;1.23;;;18.40;44.40;;;;;;5076946;28;20592;-53
2021/01/10 11:17:19;;;;;;;1.63;0.90;;;18.40;44.50;;;;;;5077807;28;20032;-55
2021/01/10 11:19:48;;;;;;;3.20;0.65;;;18.40;44.60;;;;;;5075178;28;20052;-54
2021/01/10 11:22:15;;;;;;;1.73;0.60;;;18.40;44.80;;;;;;5075918;28;20040;-54
2021/01/10 11:24:42;;;;;;;1.42;0.75;;;18.40;44.90;;;;;;5081928;28;20055;-54
2021/01/10 11:27:10;;;;;;;2.92;1.05;;;18.40;45.10;;;;;;5084663;28;20416;-55
2021/01/10 11:29:39;;;;;;;1.55;1.25;;;18.40;45.30;;;;;;5077295;28;20526;-55
2021/01/10 11:32:06;;;;;;;1.23;0.70;;;18.40;45.40;;;;;;5076488;28;20075;-54
2021/01/10 11:34:32;;;;;;;1.63;0.73;;;18.40;45.80;;;;;;5081229;28;20455;-54
2021/01/10 11:36:59;;;;;;;1.75;0.38;;;18.40;46.00;;;;;;5076458;28;20119;-54
2021/01/10 11:39:26;;;;;;;0.43;0.20;;;18.40;46.20;;;;;;5077703;28;20063;-53
2021/01/10 11:41:54;;;;;;;0.63;0.50;;;18.40;46.30;;;;;;5078596;28;20136;-55
2021/01/10 11:44:23;;;;;;;2.83;0.70;;;18.40;46.30;;;;;;5105965;28;20048;-50
2021/01/10 11:46:52;;;;;;;1.52;0.55;;;18.40;46.50;;;;;;5074196;28;20048;-54
2021/01/10 11:49:20;;;;;;;0.40;0.40;;;18.40;46.50;;;;;;5081454;28;20056;-53
2021/01/10 11:51:47;;;;;;;0.85;0.45;;;18.40;46.60;;;;;;5080671;28;20079;-51
2021/01/10 11:54:15;;;;;;;0.70;0.32;;;18.40;46.60;;;;;;5076084;28;20052;-55
2021/01/10 11:56:42;;;;;;;2.00;0.95;;;18.40;46.70;;;;;;5079490;28;20048;-53
2021/01/10 11:59:08;;;;;;;0.65;0.65;;;18.40;46.70;;;;;;5075639;28;20136;-50
2021/01/10 12:01:37;;;;;;;1.50;0.85;;;18.40;46.80;;;;;;5080631;28;20113;-54
2021/01/10 12:04:06;;;;;;;2.22;0.52;;;18.40;46.90;;;;;;5075984;28;20095;-56
2021/01/10 12:06:36;;;;;;;1.23;1.13;;;18.40;46.90;;;;;;5080271;28;20113;-53
2021/01/10 12:09:03;;;;;;;1.83;0.40;;;18.50;47.00;;;;;;5077295;28;20048;-53
2021/01/10 12:11:30;;;;;;;1.15;0.60;;;18.40;47.00;;;;;;5076917;28;20044;-55
2021/01/10 12:13:57;;;;;;;0.80;0.63;;;18.50;47.10;;;;;;5073342;28;20060;-53
2021/01/10 12:16:23;;;;;;;2.15;1.02;;;18.50;47.10;;;;;;5075417;28;20116;-53
2021/01/10 12:18:51;;;;;;;1.42;1.33;;;18.40;47.10;;;;;;5077398;28;20041;-53
2021/01/10 12:21:18;;;;;;;0.93;0.60;;;18.50;47.20;;;;;;5079265;28;20048;-55
2021/01/10 12:23:44;;;;;;;3.60;0.88;;;18.50;47.20;;;;;;5076279;28;20520;-53
2021/01/10 12:26:12;;;;;;;1.35;0.90;;;18.50;47.30;;;;;;5085148;28;20040;-53
2021/01/10 12:28:40;;;;;;;0.47;0.47;;;18.50;47.30;;;;;;5077958;28;20443;-55
2021/01/10 12:31:07;;;;;;;1.05;0.57;;;18.50;47.40;;;;;;5076712;28;20126;-56
2021/01/10 12:33:34;;;;;;;0.80;0.75;;;18.50;47.40;;;;;;5075742;28;20107;-57
2021/01/10 12:36:03;;;;;;;1.05;0.40;;;18.50;47.40;;;;;;5076683;28;20112;-54
2021/01/10 12:38:30;;;;;;;0.60;0.55;;;18.50;47.50;;;;;;5086408;28;20048;-54
2021/01/10 12:40:56;;;;;;;0.70;0.40;;;18.50;47.50;;;;;;5073360;28;20442;-53
2021/01/10 12:43:23;;;;;;;0.73;0.65;;;18.50;48.10;;;;;;5075137;28;20056;-51
2021/01/10 12:45:50;;;;;;;1.05;0.25;;;18.50;47.50;;;;;;5079799;28;20056;-51
2021/01/10 12:48:17;;;;;;;1.75;0.50;;;18.50;47.60;;;;;;5078524;28;20089;-55
2021/01/10 12:50:44;;;;;;;2.83;0.60;;;18.50;47.60;;;;;;5072130;28;20052;-56
2021/01/10 12:53:14;;;;;;;1.27;0.50;;;18.50;47.70;;;;;;5070979;28;20040;-56
2021/01/10 12:55:40;;;;;;;1.98;0.63;;;18.60;48.40;;;;;;5085074;28;20067;-55
2021/01/10 12:58:07;;;;;;;0.60;0.60;;;18.60;47.80;;;;;;5075542;28;20207;-54